createdAt,value
2022-11-19T00:01:26.676Z,9.10
2022-11-19T00:03:54.091Z,9.10
2022-11-19T00:06:24.286Z,9.20
2022-11-19T00:08:51.960Z,9.40
2022-11-19T00:11:40.420Z,9.50
2022-11-19T00:14:12.604Z,9.50
2022-11-19T00:16:39.864Z,9.60
2022-11-19T00:19:06.922Z,9.60
2022-11-19T00:21:33.658Z,9.60
2022-11-19T00:24:00.437Z,9.60
2022-11-19T00:26:27.224Z,9.60
2022-11-19T00:28:54.817Z,9.70
2022-11-19T00:31:21.779Z,9.80
2022-11-19T00:33:54.374Z,9.70
2022-11-19T00:36:22.556Z,9.70
2022-11-19T00:38:50.050Z,9.70
2022-11-19T00:41:16.908Z,9.80
2022-11-19T00:43:50.439Z,9.80
2022-11-19T00:46:19.882Z,9.80
2022-11-19T00:48:48.522Z,9.80
2022-11-19T00:51:17.347Z,9.70
2022-11-19T00:53:44.370Z,9.70
2022-11-19T00:56:14.265Z,9.60
2022-11-19T00:58:42.350Z,9.60
2022-11-19T01:01:10.964Z,9.70
2022-11-19T01:03:38.948Z,9.70
2022-11-19T01:06:06.371Z,9.60
2022-11-19T01:08:33.248Z,9.60
2022-11-19T01:11:12.202Z,9.80
2022-11-19T01:13:39.759Z,9.80
2022-11-19T01:16:12.457Z,9.80
2022-11-19T01:18:41.139Z,9.80
2022-11-19T01:21:10.765Z,9.70
2022-11-19T01:23:39.249Z,9.70
2022-11-19T01:26:07.636Z,9.70
2022-11-19T01:28:35.073Z,9.70
2022-11-19T01:31:17.265Z,9.70
2022-11-19T01:33:44.528Z,9.70
2022-11-19T01:36:17.348Z,9.70
2022-11-19T01:38:44.488Z,9.60
2022-11-19T01:41:11.421Z,9.60
2022-11-19T01:43:59.305Z,9.70
2022-11-19T01:46:44.153Z,9.50
2022-11-19T01:49:14.138Z,9.50
2022-11-19T01:51:48.661Z,9.50
2022-11-19T01:54:55.350Z,9.50
2022-11-19T01:57:22.202Z,9.40
2022-11-19T01:59:51.710Z,9.40
2022-11-19T02:02:25.373Z,9.40
2022-11-19T02:04:53.931Z,9.40
2022-11-19T02:07:26.340Z,9.50
2022-11-19T02:09:53.335Z,9.70
2022-11-19T02:12:32.533Z,9.50
2022-11-19T02:15:23.063Z,9.80
2022-11-19T02:18:10.071Z,9.70
2022-11-19T02:20:46.098Z,9.60
2022-11-19T02:23:34.011Z,9.60
2022-11-19T02:26:09.766Z,9.60
2022-11-19T02:28:36.516Z,9.60
2022-11-19T02:31:11.384Z,9.40
2022-11-19T02:33:43.150Z,9.30
2022-11-19T02:36:14.731Z,9.30
2022-11-19T02:39:12.525Z,9.30
2022-11-19T02:41:50.770Z,9.30
2022-11-19T02:44:43.487Z,9.10
2022-11-19T02:47:18.033Z,9.00
2022-11-19T02:49:45.950Z,9.00
2022-11-19T02:52:16.449Z,8.90
2022-11-19T02:54:43.361Z,8.90
2022-11-19T02:57:12.471Z,8.90
2022-11-19T03:00:20.960Z,8.90
2022-11-19T03:03:14.187Z,8.90
2022-11-19T03:05:47.285Z,8.80
2022-11-19T03:08:14.392Z,8.80
2022-11-19T03:11:14.090Z,8.80
2022-11-19T03:14:24.509Z,8.80
2022-11-19T03:17:08.068Z,8.90
2022-11-19T03:19:43.256Z,8.80
2022-11-19T03:22:28.032Z,8.80
2022-11-19T03:25:09.136Z,8.80
2022-11-19T03:27:42.483Z,8.80
2022-11-19T03:30:11.472Z,8.80
2022-11-19T03:33:02.069Z,8.80
2022-11-19T03:35:47.161Z,8.80
2022-11-19T03:38:20.152Z,8.80
2022-11-19T03:40:49.345Z,8.90
2022-11-19T03:43:19.973Z,9.00
2022-11-19T03:45:49.357Z,9.10
2022-11-19T03:48:18.726Z,9.10
2022-11-19T03:50:57.953Z,9.20
2022-11-19T03:53:25.377Z,9.20
2022-11-19T03:55:59.621Z,9.20
2022-11-19T03:58:27.522Z,9.20
2022-11-19T04:00:54.401Z,9.30
2022-11-19T04:03:21.685Z,9.20
2022-11-19T04:05:48.431Z,9.20
2022-11-19T04:08:15.233Z,9.30
2022-11-19T04:10:42.010Z,9.20
2022-11-19T04:13:08.841Z,9.20
2022-11-19T04:15:36.126Z,9.30
2022-11-19T04:18:02.911Z,9.10
2022-11-19T04:20:30.255Z,9.00
2022-11-19T04:22:57.163Z,9.10
2022-11-19T04:25:23.959Z,9.20
2022-11-19T04:27:50.720Z,9.20
2022-11-19T04:30:17.704Z,9.20
2022-11-19T04:32:44.500Z,9.20
2022-11-19T04:35:11.735Z,9.10
2022-11-19T04:37:38.926Z,9.20
2022-11-19T04:40:06.754Z,9.10
2022-11-19T04:42:33.519Z,9.00
2022-11-19T04:45:00.373Z,9.00
2022-11-19T04:47:27.232Z,8.90
2022-11-19T04:49:53.988Z,8.90
2022-11-19T04:52:20.710Z,9.10
2022-11-19T04:54:47.723Z,9.20
2022-11-19T04:57:14.762Z,9.10
2022-11-19T04:59:41.648Z,9.10
2022-11-19T05:02:08.446Z,9.20
2022-11-19T05:04:35.616Z,9.30
2022-11-19T05:07:02.564Z,9.20
2022-11-19T05:09:29.427Z,9.20
2022-11-19T05:11:56.141Z,9.10
2022-11-19T05:14:28.831Z,9.00
2022-11-19T05:16:57.010Z,8.90
2022-11-19T05:19:23.934Z,8.90
2022-11-19T05:21:51.140Z,8.80
2022-11-19T05:24:18.055Z,8.80
2022-11-19T05:26:44.884Z,8.80
2022-11-19T05:29:12.862Z,8.80
2022-11-19T05:31:39.697Z,9.00
2022-11-19T05:34:07.489Z,9.10
2022-11-19T05:36:37.592Z,9.10
2022-11-19T05:39:05.115Z,9.00
2022-11-19T05:41:34.959Z,9.10
2022-11-19T05:44:02.242Z,10.80
2022-11-19T05:46:29.992Z,9.20
2022-11-19T05:48:56.732Z,9.20
2022-11-19T05:51:23.899Z,9.30
2022-11-19T05:53:51.145Z,9.40
2022-11-19T05:56:21.095Z,9.50
2022-11-19T05:58:48.514Z,8.20
2022-11-19T06:01:15.934Z,9.50
2022-11-19T06:03:43.474Z,9.50
2022-11-19T06:06:13.296Z,9.60
2022-11-19T06:08:40.031Z,9.60
2022-11-19T06:11:07.249Z,9.60
2022-11-19T06:13:34.686Z,9.60
2022-11-19T06:16:01.659Z,9.60
2022-11-19T06:18:34.680Z,9.70
2022-11-19T06:21:01.429Z,10.70
2022-11-19T06:23:28.191Z,9.70
2022-11-19T06:25:55.083Z,9.80
2022-11-19T06:28:21.799Z,9.80
2022-11-19T06:30:48.555Z,9.80
2022-11-19T06:33:15.504Z,9.70
2022-11-19T06:35:42.706Z,9.70
2022-11-19T06:38:09.891Z,9.80
2022-11-19T06:40:36.622Z,9.80
2022-11-19T06:43:03.848Z,9.90
2022-11-19T06:45:31.011Z,9.90
2022-11-19T06:47:57.783Z,9.90
2022-11-19T06:50:24.507Z,9.90
2022-11-19T06:52:51.283Z,9.90
2022-11-19T06:55:18.647Z,9.80
2022-11-19T06:57:45.841Z,9.90
2022-11-19T07:00:13.931Z,10.00
2022-11-19T07:02:41.106Z,9.70
2022-11-19T07:05:08.557Z,9.70
2022-11-19T07:07:35.838Z,9.70
2022-11-19T07:10:02.655Z,9.80
2022-11-19T07:12:29.530Z,9.80
2022-11-19T07:15:01.089Z,9.70
2022-11-19T07:17:31.126Z,9.70
2022-11-19T07:19:57.916Z,9.80
2022-11-19T07:22:25.267Z,9.80
2022-11-19T07:24:53.739Z,9.90
2022-11-19T07:27:20.505Z,9.90
2022-11-19T07:29:47.294Z,10.00
2022-11-19T07:32:14.619Z,9.90
2022-11-19T07:34:41.780Z,9.90
2022-11-19T07:37:08.717Z,10.00
2022-11-19T07:39:35.894Z,9.90
2022-11-19T07:42:21.597Z,9.80
2022-11-19T07:44:52.200Z,9.90
2022-11-19T07:47:22.027Z,10.00
2022-11-19T07:49:48.767Z,10.00
2022-11-19T07:52:15.579Z,10.10
2022-11-19T07:54:42.393Z,10.10
2022-11-19T07:57:09.445Z,10.10
2022-11-19T07:59:36.208Z,10.00
2022-11-19T08:02:03.481Z,10.00
2022-11-19T08:04:30.396Z,10.10
2022-11-19T08:06:57.242Z,10.10
2022-11-19T08:09:24.504Z,10.00
2022-11-19T08:11:51.306Z,9.90
2022-11-19T08:14:18.107Z,9.90
2022-11-19T08:17:03.553Z,9.90
2022-11-19T08:19:30.313Z,9.90
2022-11-19T08:21:57.116Z,10.00
2022-11-19T08:24:24.279Z,10.10
2022-11-19T08:26:51.576Z,10.10
2022-11-19T08:29:21.135Z,10.10
2022-11-19T08:31:48.761Z,10.10
2022-11-19T08:34:17.386Z,10.10
2022-11-19T08:36:44.911Z,10.10
2022-11-19T08:39:11.841Z,9.90
2022-11-19T08:41:57.496Z,9.90
2022-11-19T08:44:24.297Z,9.90
2022-11-19T08:46:51.110Z,10.00
2022-11-19T08:49:18.057Z,10.10
2022-11-19T08:51:47.591Z,10.20
2022-11-19T08:54:14.523Z,10.20
2022-11-19T08:56:41.405Z,10.10
2022-11-19T08:59:08.418Z,10.20
2022-11-19T09:01:35.584Z,10.20
2022-11-19T09:04:02.732Z,10.10
2022-11-19T09:06:29.592Z,10.00
2022-11-19T09:08:56.438Z,9.90
2022-11-19T09:11:23.553Z,9.90
2022-11-19T09:13:50.405Z,9.80
2022-11-19T09:16:17.388Z,9.90
2022-11-19T09:18:44.609Z,10.00
2022-11-19T09:21:12.903Z,10.00
2022-11-19T09:23:41.372Z,10.00
2022-11-19T09:26:13.477Z,10.00
2022-11-19T09:28:41.250Z,9.90
2022-11-19T09:31:14.793Z,9.90
2022-11-19T09:33:43.977Z,9.90
2022-11-19T09:36:12.209Z,9.90
2022-11-19T09:38:40.866Z,10.00
2022-11-19T09:41:13.943Z,10.10
2022-11-19T09:44:02.100Z,10.20
2022-11-19T09:47:16.841Z,10.30
2022-11-19T09:49:57.678Z,10.30
2022-11-19T09:52:25.413Z,10.40
2022-11-19T09:55:18.713Z,10.40
2022-11-19T09:57:51.672Z,10.50
2022-11-19T10:00:30.894Z,10.70
2022-11-19T10:02:58.879Z,10.70
2022-11-19T10:05:51.720Z,10.70
2022-11-19T10:08:37.173Z,10.80
2022-11-19T10:11:21.032Z,10.80
2022-11-19T10:14:12.760Z,10.80
2022-11-19T10:16:39.633Z,10.70
2022-11-19T10:19:34.184Z,10.70
2022-11-19T10:22:19.499Z,10.90
2022-11-19T10:25:00.630Z,10.90
2022-11-19T10:27:57.344Z,10.90
2022-11-19T10:30:28.762Z,10.80
2022-11-19T10:33:17.080Z,10.80
2022-11-19T10:35:51.591Z,10.70
2022-11-19T10:38:36.329Z,10.60
2022-11-19T10:41:20.721Z,10.60
2022-11-19T10:44:11.182Z,10.40
2022-11-19T10:46:38.141Z,10.50
2022-11-19T10:49:10.478Z,10.50
2022-11-19T10:51:40.878Z,10.40
2022-11-19T10:54:22.589Z,10.40
2022-11-19T10:56:51.486Z,10.30
2022-11-19T10:59:23.750Z,10.30
2022-11-19T11:02:12.655Z,10.20
2022-11-19T11:05:00.768Z,10.30
2022-11-19T11:07:54.870Z,10.30
2022-11-19T11:10:33.980Z,10.30
2022-11-19T11:13:57.245Z,10.30
2022-11-19T11:16:44.662Z,10.40
2022-11-19T11:19:21.978Z,10.40
2022-11-19T11:21:53.420Z,10.50
2022-11-19T11:24:21.638Z,10.60
2022-11-19T11:26:48.583Z,10.80
2022-11-19T11:29:15.291Z,10.90
2022-11-19T11:31:44.810Z,10.90
2022-11-19T11:34:31.660Z,11.00
2022-11-19T11:37:00.942Z,11.10
2022-11-19T11:39:52.281Z,11.10
2022-11-19T11:42:20.037Z,11.20
2022-11-19T11:45:07.887Z,11.20
2022-11-19T11:47:39.711Z,11.20
2022-11-19T11:50:18.142Z,11.10
2022-11-19T11:52:51.924Z,11.20
2022-11-19T11:55:24.974Z,11.20
2022-11-19T11:57:54.676Z,11.20
2022-11-19T12:00:41.422Z,11.20
2022-11-19T12:03:11.543Z,11.20
2022-11-19T12:06:03.884Z,11.10
2022-11-19T12:08:52.747Z,11.10
2022-11-19T12:11:56.095Z,11.20
2022-11-19T12:14:23.250Z,11.00
2022-11-19T12:17:35.293Z,10.90
2022-11-19T12:20:21.616Z,10.90
2022-11-19T12:23:12.876Z,10.80
2022-11-19T12:26:02.936Z,10.70
2022-11-19T12:29:01.536Z,10.70
2022-11-19T12:32:13.489Z,10.90
2022-11-19T12:35:02.005Z,11.00
2022-11-19T12:37:50.242Z,11.10
2022-11-19T12:41:09.454Z,11.30
2022-11-19T12:43:57.071Z,11.30
2022-11-19T12:46:32.317Z,11.20
2022-11-19T12:48:59.080Z,11.10
2022-11-19T12:51:44.156Z,11.00
2022-11-19T12:54:35.136Z,11.10
2022-11-19T12:57:19.110Z,11.10
2022-11-19T13:00:02.669Z,11.10
2022-11-19T13:02:40.197Z,11.10
2022-11-19T13:05:22.546Z,11.10
2022-11-19T13:08:01.645Z,11.00
2022-11-19T13:10:43.619Z,11.00
2022-11-19T13:13:16.801Z,11.00
2022-11-19T13:15:48.264Z,11.00
2022-11-19T13:18:18.180Z,10.90
2022-11-19T13:20:58.010Z,11.00
2022-11-19T13:23:30.478Z,11.10
2022-11-19T13:26:23.123Z,11.20
2022-11-19T13:28:59.738Z,11.30
2022-11-19T13:31:48.987Z,11.30
2022-11-19T13:34:30.424Z,11.30
2022-11-19T13:37:37.927Z,11.40
2022-11-19T13:40:32.477Z,11.90
2022-11-19T13:43:31.951Z,11.30
2022-11-19T13:46:23.418Z,11.40
2022-11-19T13:49:00.712Z,11.40
2022-11-19T13:51:43.030Z,11.30
2022-11-19T13:54:26.749Z,11.30
2022-11-19T13:56:57.107Z,11.30
2022-11-19T13:59:36.721Z,11.30
2022-11-19T14:02:24.875Z,11.20
2022-11-19T14:05:04.086Z,11.20
2022-11-19T14:07:37.772Z,11.30
2022-11-19T14:10:32.119Z,11.20
2022-11-19T14:13:06.752Z,11.30
2022-11-19T14:16:11.090Z,11.30
2022-11-19T14:19:05.649Z,11.30
2022-11-19T14:21:54.209Z,11.40
2022-11-19T14:24:45.296Z,11.40
2022-11-19T14:27:18.343Z,11.30
2022-11-19T14:29:45.477Z,11.30
2022-11-19T14:32:12.190Z,11.30
2022-11-19T14:35:02.583Z,11.30
2022-11-19T14:37:45.602Z,11.30
2022-11-19T14:40:23.287Z,11.30
2022-11-19T14:43:20.810Z,11.20
2022-11-19T14:46:03.011Z,11.20
2022-11-19T14:48:31.250Z,11.20
2022-11-19T14:51:11.062Z,11.10
2022-11-19T14:53:48.461Z,11.10
2022-11-19T14:56:17.094Z,11.10
2022-11-19T14:59:20.859Z,11.10
2022-11-19T15:02:04.849Z,11.10
2022-11-19T15:04:42.009Z,11.20
2022-11-19T15:07:12.491Z,11.20
2022-11-19T15:10:10.532Z,11.20
2022-11-19T15:12:44.052Z,11.10
2022-11-19T15:15:20.285Z,11.00
2022-11-19T15:17:59.156Z,11.00
2022-11-19T15:20:50.923Z,10.90
2022-11-19T15:23:43.716Z,10.90
2022-11-19T15:26:52.600Z,11.00
2022-11-19T15:29:50.221Z,11.10
2022-11-19T15:32:30.842Z,11.20
2022-11-19T15:35:12.790Z,11.20
2022-11-19T15:38:19.932Z,11.20
2022-11-19T15:40:48.412Z,11.20
2022-11-19T15:43:37.827Z,11.20
2022-11-19T15:46:11.455Z,11.30
2022-11-19T15:48:40.979Z,11.30
2022-11-19T15:51:13.256Z,11.30
2022-11-19T15:53:58.348Z,11.40
2022-11-19T15:56:26.800Z,11.30
2022-11-19T15:58:53.900Z,11.30
2022-11-19T16:01:22.110Z,11.30
2022-11-19T16:03:51.951Z,11.20
2022-11-19T16:06:39.746Z,11.30
2022-11-19T16:09:07.290Z,11.20
2022-11-19T16:11:55.390Z,11.30
2022-11-19T16:14:42.033Z,11.20
2022-11-19T16:17:39.766Z,11.30
2022-11-19T16:20:10.110Z,11.20
2022-11-19T16:22:44.683Z,11.20
2022-11-19T16:25:21.849Z,11.20
2022-11-19T16:27:48.643Z,11.20
2022-11-19T16:30:24.391Z,11.20
2022-11-19T16:32:51.371Z,11.20
2022-11-19T16:35:32.334Z,11.30
2022-11-19T16:38:01.559Z,11.30
2022-11-19T16:40:49.306Z,11.30
2022-11-19T16:43:17.142Z,11.20
2022-11-19T16:45:46.780Z,11.20
2022-11-19T16:48:43.034Z,11.20
2022-11-19T16:51:40.388Z,11.20
2022-11-19T16:54:11.295Z,11.20
2022-11-19T16:56:45.836Z,11.10
2022-11-19T16:59:25.614Z,11.10
2022-11-19T17:01:56.032Z,11.10
2022-11-19T17:04:30.036Z,11.10
2022-11-19T17:06:58.633Z,11.10
2022-11-19T17:09:37.888Z,11.00
2022-11-19T17:12:22.772Z,10.90
2022-11-19T17:14:52.834Z,10.80
2022-11-19T17:17:41.674Z,10.80
2022-11-19T17:20:27.351Z,10.80
2022-11-19T17:22:54.443Z,10.80
2022-11-19T17:25:21.264Z,10.80
2022-11-19T17:27:55.315Z,10.80
2022-11-19T17:30:30.926Z,10.90
2022-11-19T17:33:03.854Z,10.80
2022-11-19T17:35:30.959Z,10.80
2022-11-19T17:37:59.890Z,10.70
2022-11-19T17:40:26.882Z,10.70
2022-11-19T17:43:12.196Z,10.50
2022-11-19T17:45:38.926Z,10.40
2022-11-19T17:48:23.344Z,10.40
2022-11-19T17:50:51.647Z,10.30
2022-11-19T17:53:19.264Z,10.40
2022-11-19T17:55:47.800Z,10.40
2022-11-19T17:58:14.928Z,10.50
2022-11-19T18:00:42.314Z,10.50
2022-11-19T18:03:16.126Z,10.60
2022-11-19T18:05:47.508Z,10.50
2022-11-19T18:08:17.746Z,10.50
2022-11-19T18:10:46.822Z,10.50
2022-11-19T18:13:18.858Z,10.30
2022-11-19T18:15:45.632Z,10.20
2022-11-19T18:18:12.435Z,10.20
2022-11-19T18:20:39.758Z,10.30
2022-11-19T18:23:06.510Z,10.30
2022-11-19T18:25:33.648Z,10.40
2022-11-19T18:28:00.402Z,10.40
2022-11-19T18:30:27.184Z,10.40
2022-11-19T18:32:54.316Z,10.50
2022-11-19T18:35:22.497Z,10.50
2022-11-19T18:37:49.416Z,10.50
2022-11-19T18:40:16.236Z,10.50
2022-11-19T18:43:03.171Z,10.50
2022-11-19T18:45:30.745Z,10.50
2022-11-19T18:48:00.717Z,10.50
2022-11-19T18:50:30.541Z,10.50
2022-11-19T18:52:59.539Z,10.50
2022-11-19T18:55:26.621Z,10.50
2022-11-19T18:57:54.406Z,10.60
2022-11-19T19:00:21.277Z,10.50
2022-11-19T19:02:48.276Z,10.50
2022-11-19T19:05:15.267Z,10.60
2022-11-19T19:07:42.119Z,10.60
2022-11-19T19:10:09.753Z,10.60
2022-11-19T19:12:37.016Z,10.50
2022-11-19T19:15:04.024Z,10.50
2022-11-19T19:17:31.299Z,10.40
2022-11-19T19:20:01.428Z,10.50
2022-11-19T19:22:29.385Z,10.50
2022-11-19T19:24:58.340Z,10.50
2022-11-19T19:27:26.012Z,10.50
2022-11-19T19:29:52.826Z,10.50
2022-11-19T19:32:20.400Z,10.60
2022-11-19T19:34:47.660Z,10.70
2022-11-19T19:37:14.476Z,10.70
2022-11-19T19:39:41.202Z,10.60
2022-11-19T19:42:08.126Z,10.60
2022-11-19T19:44:35.068Z,10.70
2022-11-19T19:47:02.330Z,10.70
2022-11-19T19:49:29.096Z,10.60
2022-11-19T19:51:56.533Z,10.50
2022-11-19T19:54:23.724Z,10.50
2022-11-19T19:56:53.152Z,10.60
2022-11-19T19:59:20.178Z,10.50
2022-11-19T20:01:47.511Z,10.60
2022-11-19T20:04:14.502Z,10.60
2022-11-19T20:06:45.366Z,10.60
2022-11-19T20:09:12.729Z,10.50
2022-11-19T20:11:40.010Z,10.50
2022-11-19T20:14:06.944Z,10.40
2022-11-19T20:16:35.155Z,10.30
2022-11-19T20:19:02.475Z,10.30
2022-11-19T20:21:33.918Z,10.30
2022-11-19T20:24:00.971Z,10.40
2022-11-19T20:26:30.145Z,10.30
2022-11-19T20:28:59.381Z,10.30
2022-11-19T20:31:27.025Z,10.10
2022-11-19T20:33:57.181Z,10.10
2022-11-19T20:36:26.611Z,10.10
2022-11-19T20:38:53.895Z,10.20
2022-11-19T20:41:40.597Z,10.30
2022-11-19T20:44:22.615Z,10.40
2022-11-19T20:46:57.220Z,10.20
2022-11-19T20:49:26.159Z,10.20
2022-11-19T20:51:54.537Z,10.40
2022-11-19T20:54:22.244Z,10.40
2022-11-19T20:56:51.095Z,10.40
2022-11-19T20:59:19.284Z,10.40
2022-11-19T21:01:49.469Z,10.40
2022-11-19T21:04:17.323Z,10.40
2022-11-19T21:06:44.252Z,10.50
2022-11-19T21:09:11.921Z,10.50
2022-11-19T21:11:38.869Z,10.50
2022-11-19T21:14:05.732Z,10.50
2022-11-19T21:16:33.014Z,10.50
2022-11-19T21:19:00.136Z,10.50
2022-11-19T21:21:27.512Z,10.50
2022-11-19T21:23:55.173Z,10.50
2022-11-19T21:26:24.206Z,10.50
2022-11-19T21:28:54.203Z,10.40
2022-11-19T21:31:38.025Z,10.30
2022-11-19T21:34:17.883Z,10.20
2022-11-19T21:36:45.656Z,10.20
2022-11-19T21:39:12.617Z,10.20
2022-11-19T21:41:39.464Z,10.30
2022-11-19T21:44:06.633Z,10.20
2022-11-19T21:46:34.633Z,10.20
2022-11-19T21:49:02.290Z,10.10
2022-11-19T21:51:29.153Z,10.10
2022-11-19T21:53:57.299Z,10.20
2022-11-19T21:56:25.573Z,10.20
2022-11-19T21:58:52.414Z,10.30
2022-11-19T22:01:19.481Z,10.20
2022-11-19T22:03:46.829Z,10.30
2022-11-19T22:06:13.743Z,10.20
2022-11-19T22:08:41.826Z,10.10
2022-11-19T22:11:28.705Z,10.10
2022-11-19T22:14:04.621Z,10.10
2022-11-19T22:16:37.569Z,10.10
2022-11-19T22:19:05.691Z,10.20
2022-11-19T22:21:33.469Z,10.10
2022-11-19T22:24:00.520Z,10.10
2022-11-19T22:26:28.072Z,10.00
2022-11-19T22:28:55.341Z,10.10
2022-11-19T22:31:23.277Z,10.10
2022-11-19T22:33:51.800Z,10.10
2022-11-19T22:36:20.330Z,10.10
2022-11-19T22:38:47.649Z,10.10
2022-11-19T22:41:19.456Z,10.10
2022-11-19T22:43:47.041Z,10.10
2022-11-19T22:46:14.746Z,10.00
2022-11-19T22:48:41.983Z,9.90
2022-11-19T22:51:14.304Z,9.90
2022-11-19T22:53:42.043Z,10.00
2022-11-19T22:56:11.635Z,9.90
2022-11-19T22:58:42.368Z,9.90
2022-11-19T23:01:30.701Z,10.00
2022-11-19T23:03:59.344Z,9.90
2022-11-19T23:06:26.229Z,9.80
2022-11-19T23:08:53.154Z,9.80
2022-11-19T23:11:41.599Z,9.80
2022-11-19T23:14:11.527Z,9.70
2022-11-19T23:16:39.174Z,9.70
2022-11-19T23:19:06.532Z,9.70
2022-11-19T23:21:33.532Z,9.70
2022-11-19T23:24:01.145Z,9.70
2022-11-19T23:26:30.058Z,9.70
2022-11-19T23:28:57.423Z,9.70
2022-11-19T23:31:29.316Z,9.70
2022-11-19T23:33:59.306Z,9.60
2022-11-19T23:36:32.857Z,9.70
2022-11-19T23:38:59.920Z,9.70
2022-11-19T23:41:28.334Z,9.80
2022-11-19T23:43:55.820Z,9.70
2022-11-19T23:46:25.819Z,9.70
2022-11-19T23:48:53.002Z,9.70
2022-11-19T23:51:22.470Z,9.70
2022-11-19T23:53:50.481Z,9.70
2022-11-19T23:56:20.812Z,9.60
2022-11-19T23:58:48.243Z,9.40
